Weather at Tayfursökmen Borderpost Helipad

Public forecast

Using degrees Celsius for public forecast. Weather courtesy of forecast.io.

Closest aviation weather report (METAR) to Tayfursökmen Borderpost Helipad

Closest report is Hatay Airport, 9.7 nm (18.0 km) NW.

2024/05/25 22:50 (retrieved 38 minutes ago)

LTDA 252250Z 22016KT 9999 TS FEW027CB BKN030 20/15 Q1010 NOSIG

Closest aviation forecast (TAF) to Tayfursökmen Borderpost Helipad

Forecast is more than 12 hours old.

Closest forecast is Aleppo International Airport, 40.1 nm (74.3 km) E.

2024/05/25 06:00 (retrieved 17 hours ago)

TAF OSAP 250400Z 2506/2606 35012KT 9999 SCT030 BKN100 TEMPO 2510/2513 33018KT 4000 -RA SCT025 BKN080